Plymouth, WA (99346)

4:05 AM PST on December 06, 2016 (GMT -0800)
South Hill | | Change Station
Active Advisory: Winter Weather Advisory

Elev 388 ft 45.91 °N, 119.34 °W | Updated 2 minutes ago

Overcast
Overcast
34.1 °F
Feels Like 34 °F
N
1.0
Wind Variable Wind from SSE

Today
High -- | Low -- °F
--% Chance of Precip.
Yesterday
High -- | Low -- °F
Precip. -- in
Pressure 30.01 in
Visibility 5.0 miles
Clouds Few 1400 ft
Mostly Cloudy 2600 ft
Overcast 5000 ft
Windchill 34 °F
Dew Point 29 °F
Humidity 82%
Rainfall 0.00 in
Snow Depth Not available.
7:24 AM 4:12 PM
Waxing Crescent, 41% visible
METAR KHRI 061153Z AUTO 17003KT 5SM BR FEW014 BKN026 OVC050 01/M01 A2999 RMK AO2 SLP160 60002 70005 T00061006 10017 20000 53003
Pressure 30.01 in
Visibility 5.0 miles
Clouds Few 1400 ft
Mostly Cloudy 2600 ft
Overcast 5000 ft
Windchill 34 °F
Dew Point 29 °F
Humidity 82%
Rainfall 0.00 in
Snow Depth Not available.
7:24 AM 4:12 PM
Waxing Crescent, 41% visible
METAR KHRI 061153Z AUTO 17003KT 5SM BR FEW014 BKN026 OVC050 01/M01 A2999 RMK AO2 SLP160 60002 70005 T00061006 10017 20000 53003

10-Day Weather Forecast

Almanac

Astronomy

Dec. 06, 2016 Rise Set
Actual Time
Civil Twilight
Nautical Twilight
Astronomical Twilight
Moon
Length of Visible Light
Length of Day
Tomorrow will be .
, % of the Moon is Illuminated

Today's Extremes

State Highs State Lows

Community

WunderPhotos

Upload Photos

1,955,936 photos uploaded!

WunderBlog® & News

Nearby

Air Quality

  Air Quality AQ Index Pollutant
Not available.

Snow Depth

Station Depth Elevation

Earthquake Activity

City Distance Mag. Time & Date
Minimum magnitude displayed is 2.5.

Coastal Water Temperatures

Place Temperature

Stations

Nearby Weather Stations

Station Location Temp. Windchill Dew Point Humidity Wind Precip. Elev Updated Type
                   

Watches & Warnings

Winter Weather Advisory
Issued: 8:17 PM PST Dec. 5, 2016 – National Weather Service

... Winter Weather Advisory remains in effect until 10 am PST
Tuesday...

* locations... Pendleton... Pilot Rock... Boardman... Hermiston...
Ione... Connell... Prosser... Tri-Cities... Dayton... Waitsburg...
Walla Walla.

* Snow accumulations... 1 to 2 inches.

* Timing... areas of snow showers will begin to develop this
evening then increase overnight. Snow showers will become
scattered Tuesday afternoon.

* Impacts... area roadways will become snow covered and slick.
Heavier snow showers could briefly reduce visibility.

* Winds... southwest 5 to 10 mph.

* Snow level... lowering to the basin floor overnight.

* Web page: for a detailed view of the hazard area visit
http://www.Wrh.NOAA.Gov/map/?Wfo=pdt.

Precautionary/preparedness actions...

A Winter Weather Advisory for snow means that periods of snow
will cause primarily travel difficulties. Be prepared for snow
covered roads and limited visibilities... and use caution while
driving.